sensor_id;sensor_type;location;lat;lon;timestamp;P1;durP1;ratioP1;P2;durP2;ratioP2
16705;SDS011;8469;60.136;15.180;2022-12-07T00:01:19;3.20;;;1.12;;
16705;SDS011;8469;60.136;15.180;2022-12-07T00:03:47;2.22;;;1.10;;
16705;SDS011;8469;60.136;15.180;2022-12-07T00:06:15;3.37;;;0.90;;
16705;SDS011;8469;60.136;15.180;2022-12-07T00:08:43;2.50;;;0.88;;
16705;SDS011;8469;60.136;15.180;2022-12-07T00:11:12;1.80;;;0.75;;
16705;SDS011;8469;60.136;15.180;2022-12-07T00:13:40;2.20;;;1.00;;
16705;SDS011;8469;60.136;15.180;2022-12-07T00:16:08;1.90;;;1.00;;
16705;SDS011;8469;60.136;15.180;2022-12-07T00:18:36;2.90;;;0.80;;
16705;SDS011;8469;60.136;15.180;2022-12-07T00:21:09;1.47;;;0.98;;
16705;SDS011;8469;60.136;15.180;2022-12-07T00:23:33;2.08;;;0.80;;
16705;SDS011;8469;60.136;15.180;2022-12-07T00:26:04;3.27;;;0.80;;
16705;SDS011;8469;60.136;15.180;2022-12-07T00:28:31;3.77;;;0.90;;
16705;SDS011;8469;60.136;15.180;2022-12-07T00:31:03;3.30;;;1.20;;
16705;SDS011;8469;60.136;15.180;2022-12-07T00:33:32;1.95;;;1.17;;
16705;SDS011;8469;60.136;15.180;2022-12-07T00:35:59;3.57;;;1.03;;
16705;SDS011;8469;60.136;15.180;2022-12-07T00:38:27;1.10;;;1.00;;
16705;SDS011;8469;60.136;15.180;2022-12-07T00:40:59;2.95;;;1.10;;
16705;SDS011;8469;60.136;15.180;2022-12-07T00:43:26;2.02;;;0.88;;
16705;SDS011;8469;60.136;15.180;2022-12-07T00:45:54;1.47;;;0.93;;
16705;SDS011;8469;60.136;15.180;2022-12-07T00:48:22;1.50;;;0.90;;
16705;SDS011;8469;60.136;15.180;2022-12-07T00:50:50;1.90;;;0.95;;
16705;SDS011;8469;60.136;15.180;2022-12-07T00:53:17;0.70;;;0.70;;
16705;SDS011;8469;60.136;15.180;2022-12-07T00:55:45;3.92;;;1.10;;
16705;SDS011;8469;60.136;15.180;2022-12-07T00:58:12;2.10;;;1.02;;
16705;SDS011;8469;60.136;15.180;2022-12-07T01:00:44;1.70;;;1.00;;
16705;SDS011;8469;60.136;15.180;2022-12-07T01:03:10;1.25;;;0.93;;
16705;SDS011;8469;60.136;15.180;2022-12-07T01:05:37;3.50;;;1.60;;
16705;SDS011;8469;60.136;15.180;2022-12-07T01:08:05;1.95;;;1.20;;
16705;SDS011;8469;60.136;15.180;2022-12-07T01:10:32;3.62;;;1.00;;
16705;SDS011;8469;60.136;15.180;2022-12-07T01:13:00;2.05;;;1.20;;
16705;SDS011;8469;60.136;15.180;2022-12-07T01:15:27;1.30;;;0.88;;
16705;SDS011;8469;60.136;15.180;2022-12-07T01:17:54;1.50;;;1.00;;
16705;SDS011;8469;60.136;15.180;2022-12-07T01:20:22;3.02;;;1.00;;
16705;SDS011;8469;60.136;15.180;2022-12-07T01:22:49;2.58;;;1.00;;
16705;SDS011;8469;60.136;15.180;2022-12-07T01:25:18;2.62;;;0.93;;
16705;SDS011;8469;60.136;15.180;2022-12-07T01:27:46;5.87;;;1.07;;
16705;SDS011;8469;60.136;15.180;2022-12-07T01:30:13;8.73;;;1.20;;
16705;SDS011;8469;60.136;15.180;2022-12-07T01:32:40;4.30;;;1.10;;
16705;SDS011;8469;60.136;15.180;2022-12-07T01:35:08;3.40;;;0.90;;
16705;SDS011;8469;60.136;15.180;2022-12-07T01:37:35;5.00;;;1.40;;
16705;SDS011;8469;60.136;15.180;2022-12-07T01:40:04;2.67;;;0.97;;
16705;SDS011;8469;60.136;15.180;2022-12-07T01:42:32;2.70;;;0.70;;
16705;SDS011;8469;60.136;15.180;2022-12-07T01:47:53;1.30;;;0.80;;
16705;SDS011;8469;60.136;15.180;2022-12-07T01:50:16;2.08;;;0.90;;
16705;SDS011;8469;60.136;15.180;2022-12-07T01:55:47;2.47;;;1.00;;
16705;SDS011;8469;60.136;15.180;2022-12-07T01:58:16;1.75;;;1.07;;
16705;SDS011;8469;60.136;15.180;2022-12-07T02:00:44;1.30;;;0.90;;
16705;SDS011;8469;60.136;15.180;2022-12-07T02:03:16;2.22;;;1.30;;
16705;SDS011;8469;60.136;15.180;2022-12-07T02:05:43;5.03;;;1.52;;
16705;SDS011;8469;60.136;15.180;2022-12-07T02:08:12;4.80;;;1.20;;
16705;SDS011;8469;60.136;15.180;2022-12-07T02:10:40;2.20;;;1.10;;
16705;SDS011;8469;60.136;15.180;2022-12-07T02:13:11;4.28;;;1.05;;
16705;SDS011;8469;60.136;15.180;2022-12-07T02:20:54;3.47;;;0.90;;
16705;SDS011;8469;60.136;15.180;2022-12-07T02:23:35;8.03;;;1.10;;
16705;SDS011;8469;60.136;15.180;2022-12-07T02:26:02;2.67;;;1.20;;
16705;SDS011;8469;60.136;15.180;2022-12-07T02:31:15;3.30;;;0.98;;
16705;SDS011;8469;60.136;15.180;2022-12-07T02:33:48;1.55;;;1.00;;
16705;SDS011;8469;60.136;15.180;2022-12-07T02:36:19;3.40;;;1.10;;
16705;SDS011;8469;60.136;15.180;2022-12-07T02:39:00;2.50;;;0.98;;
16705;SDS011;8469;60.136;15.180;2022-12-07T02:41:28;1.15;;;1.02;;
16705;SDS011;8469;60.136;15.180;2022-12-07T02:44:00;2.20;;;1.27;;
16705;SDS011;8469;60.136;15.180;2022-12-07T02:46:35;2.20;;;1.10;;
16705;SDS011;8469;60.136;15.180;2022-12-07T02:49:02;1.52;;;0.95;;
16705;SDS011;8469;60.136;15.180;2022-12-07T02:51:31;2.92;;;1.02;;
16705;SDS011;8469;60.136;15.180;2022-12-07T02:53:59;1.95;;;1.00;;
16705;SDS011;8469;60.136;15.180;2022-12-07T02:56:33;1.20;;;0.85;;
16705;SDS011;8469;60.136;15.180;2022-12-07T02:59:12;1.10;;;0.70;;
16705;SDS011;8469;60.136;15.180;2022-12-07T03:01:40;2.57;;;0.93;;
16705;SDS011;8469;60.136;15.180;2022-12-07T03:04:09;2.47;;;1.40;;
16705;SDS011;8469;60.136;15.180;2022-12-07T03:06:36;1.80;;;1.10;;
16705;SDS011;8469;60.136;15.180;2022-12-07T03:09:13;2.62;;;1.20;;
16705;SDS011;8469;60.136;15.180;2022-12-07T03:14:27;3.75;;;1.00;;
16705;SDS011;8469;60.136;15.180;2022-12-07T03:16:53;3.25;;;2.00;;
16705;SDS011;8469;60.136;15.180;2022-12-07T03:19:21;2.92;;;1.42;;
16705;SDS011;8469;60.136;15.180;2022-12-07T03:21:51;3.35;;;1.07;;
16705;SDS011;8469;60.136;15.180;2022-12-07T03:24:19;1.00;;;0.90;;
16705;SDS011;8469;60.136;15.180;2022-12-07T03:26:48;1.70;;;0.95;;
16705;SDS011;8469;60.136;15.180;2022-12-07T03:29:20;1.00;;;0.80;;
16705;SDS011;8469;60.136;15.180;2022-12-07T03:31:46;2.20;;;1.15;;
16705;SDS011;8469;60.136;15.180;2022-12-07T03:34:26;2.35;;;0.90;;
16705;SDS011;8469;60.136;15.180;2022-12-07T03:36:50;0.90;;;0.85;;
16705;SDS011;8469;60.136;15.180;2022-12-07T03:39:25;0.57;;;0.57;;
16705;SDS011;8469;60.136;15.180;2022-12-07T03:41:52;3.55;;;0.70;;
16705;SDS011;8469;60.136;15.180;2022-12-07T03:44:20;2.95;;;0.95;;
16705;SDS011;8469;60.136;15.180;2022-12-07T03:49:26;0.82;;;0.70;;
16705;SDS011;8469;60.136;15.180;2022-12-07T03:51:55;0.65;;;0.65;;
16705;SDS011;8469;60.136;15.180;2022-12-07T03:54:24;1.32;;;0.98;;
16705;SDS011;8469;60.136;15.180;2022-12-07T03:56:52;2.10;;;0.90;;
16705;SDS011;8469;60.136;15.180;2022-12-07T03:59:20;1.22;;;0.88;;
16705;SDS011;8469;60.136;15.180;2022-12-07T04:01:55;4.33;;;1.07;;
16705;SDS011;8469;60.136;15.180;2022-12-07T04:04:23;3.25;;;1.00;;
16705;SDS011;8469;60.136;15.180;2022-12-07T04:06:51;2.10;;;1.00;;
16705;SDS011;8469;60.136;15.180;2022-12-07T04:09:18;3.60;;;0.80;;
16705;SDS011;8469;60.136;15.180;2022-12-07T04:11:46;2.33;;;0.90;;
16705;SDS011;8469;60.136;15.180;2022-12-07T04:14:13;2.90;;;1.00;;
16705;SDS011;8469;60.136;15.180;2022-12-07T04:16:50;1.70;;;1.10;;
16705;SDS011;8469;60.136;15.180;2022-12-07T04:19:16;0.80;;;0.80;;
16705;SDS011;8469;60.136;15.180;2022-12-07T04:21:44;3.77;;;0.70;;
16705;SDS011;8469;60.136;15.180;2022-12-07T04:24:11;2.10;;;0.60;;
16705;SDS011;8469;60.136;15.180;2022-12-07T04:26:39;1.67;;;0.70;;
16705;SDS011;8469;60.136;15.180;2022-12-07T04:29:07;1.82;;;0.60;;
16705;SDS011;8469;60.136;15.180;2022-12-07T04:31:35;1.80;;;0.90;;
16705;SDS011;8469;60.136;15.180;2022-12-07T04:34:03;2.75;;;0.72;;
16705;SDS011;8469;60.136;15.180;2022-12-07T04:36:30;1.03;;;0.80;;
16705;SDS011;8469;60.136;15.180;2022-12-07T04:38:58;5.10;;;1.02;;
16705;SDS011;8469;60.136;15.180;2022-12-07T04:41:26;6.70;;;1.95;;
16705;SDS011;8469;60.136;15.180;2022-12-07T04:43:54;3.72;;;1.20;;
16705;SDS011;8469;60.136;15.180;2022-12-07T04:46:23;1.07;;;0.90;;
16705;SDS011;8469;60.136;15.180;2022-12-07T04:48:51;2.50;;;1.10;;
16705;SDS011;8469;60.136;15.180;2022-12-07T04:51:20;4.17;;;0.80;;
16705;SDS011;8469;60.136;15.180;2022-12-07T04:53:47;1.30;;;0.80;;
16705;SDS011;8469;60.136;15.180;2022-12-07T04:56:15;0.62;;;0.62;;
16705;SDS011;8469;60.136;15.180;2022-12-07T04:58:44;1.02;;;0.70;;
16705;SDS011;8469;60.136;15.180;2022-12-07T05:01:12;3.60;;;0.68;;
16705;SDS011;8469;60.136;15.180;2022-12-07T05:03:39;1.93;;;0.57;;
16705;SDS011;8469;60.136;15.180;2022-12-07T05:06:07;1.67;;;0.60;;
16705;SDS011;8469;60.136;15.180;2022-12-07T05:08:35;2.25;;;0.60;;
16705;SDS011;8469;60.136;15.180;2022-12-07T05:11:03;3.20;;;0.70;;
16705;SDS011;8469;60.136;15.180;2022-12-07T05:13:31;1.05;;;0.80;;
16705;SDS011;8469;60.136;15.180;2022-12-07T05:15:58;6.08;;;0.80;;
16705;SDS011;8469;60.136;15.180;2022-12-07T05:18:25;1.60;;;0.80;;
16705;SDS011;8469;60.136;15.180;2022-12-07T05:20:53;0.95;;;0.60;;
16705;SDS011;8469;60.136;15.180;2022-12-07T05:23:20;0.70;;;0.70;;
16705;SDS011;8469;60.136;15.180;2022-12-07T05:25:48;1.10;;;0.60;;
16705;SDS011;8469;60.136;15.180;2022-12-07T05:28:16;1.22;;;0.60;;
16705;SDS011;8469;60.136;15.180;2022-12-07T05:30:43;2.12;;;0.60;;
16705;SDS011;8469;60.136;15.180;2022-12-07T05:33:10;1.75;;;0.70;;
16705;SDS011;8469;60.136;15.180;2022-12-07T05:35:38;0.87;;;0.47;;
16705;SDS011;8469;60.136;15.180;2022-12-07T05:38:06;2.05;;;1.30;;
16705;SDS011;8469;60.136;15.180;2022-12-07T05:40:34;0.88;;;0.88;;
16705;SDS011;8469;60.136;15.180;2022-12-07T05:43:01;2.40;;;0.90;;
16705;SDS011;8469;60.136;15.180;2022-12-07T05:45:28;3.00;;;1.00;;
16705;SDS011;8469;60.136;15.180;2022-12-07T05:47:56;0.60;;;0.60;;
16705;SDS011;8469;60.136;15.180;2022-12-07T05:50:23;2.05;;;0.90;;
16705;SDS011;8469;60.136;15.180;2022-12-07T05:52:50;0.65;;;0.55;;
16705;SDS011;8469;60.136;15.180;2022-12-07T05:55:18;3.12;;;0.90;;
16705;SDS011;8469;60.136;15.180;2022-12-07T05:57:45;14.93;;;1.25;;
16705;SDS011;8469;60.136;15.180;2022-12-07T06:00:14;25.55;;;1.70;;
16705;SDS011;8469;60.136;15.180;2022-12-07T06:02:42;10.30;;;1.22;;
16705;SDS011;8469;60.136;15.180;2022-12-07T06:05:09;8.03;;;1.17;;
16705;SDS011;8469;60.136;15.180;2022-12-07T06:07:36;4.35;;;1.00;;
16705;SDS011;8469;60.136;15.180;2022-12-07T06:10:04;8.40;;;1.10;;
16705;SDS011;8469;60.136;15.180;2022-12-07T06:12:31;3.08;;;0.82;;
16705;SDS011;8469;60.136;15.180;2022-12-07T06:15:03;4.20;;;0.90;;
16705;SDS011;8469;60.136;15.180;2022-12-07T06:17:31;0.80;;;0.80;;
16705;SDS011;8469;60.136;15.180;2022-12-07T06:19:58;1.05;;;0.88;;
16705;SDS011;8469;60.136;15.180;2022-12-07T06:22:26;2.00;;;0.70;;
16705;SDS011;8469;60.136;15.180;2022-12-07T06:24:53;0.95;;;0.65;;
16705;SDS011;8469;60.136;15.180;2022-12-07T06:27:21;2.27;;;1.02;;
16705;SDS011;8469;60.136;15.180;2022-12-07T06:29:48;2.00;;;0.88;;
16705;SDS011;8469;60.136;15.180;2022-12-07T06:32:15;1.60;;;0.95;;
16705;SDS011;8469;60.136;15.180;2022-12-07T06:34:43;2.45;;;1.05;;
16705;SDS011;8469;60.136;15.180;2022-12-07T06:37:10;7.65;;;1.42;;
16705;SDS011;8469;60.136;15.180;2022-12-07T06:39:37;5.97;;;1.45;;
16705;SDS011;8469;60.136;15.180;2022-12-07T06:42:05;3.22;;;1.52;;
16705;SDS011;8469;60.136;15.180;2022-12-07T06:47:19;1.20;;;0.80;;
16705;SDS011;8469;60.136;15.180;2022-12-07T06:49:46;2.65;;;0.78;;
16705;SDS011;8469;60.136;15.180;2022-12-07T06:52:14;1.80;;;0.82;;
16705;SDS011;8469;60.136;15.180;2022-12-07T06:54:41;2.70;;;0.80;;
16705;SDS011;8469;60.136;15.180;2022-12-07T06:57:08;1.30;;;0.80;;
16705;SDS011;8469;60.136;15.180;2022-12-07T06:59:36;7.67;;;1.15;;
16705;SDS011;8469;60.136;15.180;2022-12-07T07:02:03;2.72;;;1.02;;
16705;SDS011;8469;60.136;15.180;2022-12-07T07:04:34;1.30;;;0.80;;
16705;SDS011;8469;60.136;15.180;2022-12-07T07:07:01;8.63;;;1.20;;
16705;SDS011;8469;60.136;15.180;2022-12-07T07:09:29;2.60;;;0.70;;
16705;SDS011;8469;60.136;15.180;2022-12-07T07:11:56;1.65;;;0.62;;
16705;SDS011;8469;60.136;15.180;2022-12-07T07:14:23;0.72;;;0.57;;
16705;SDS011;8469;60.136;15.180;2022-12-07T07:16:51;1.20;;;0.72;;
16705;SDS011;8469;60.136;15.180;2022-12-07T07:19:19;2.25;;;0.80;;
16705;SDS011;8469;60.136;15.180;2022-12-07T07:21:46;6.80;;;0.88;;
16705;SDS011;8469;60.136;15.180;2022-12-07T07:24:17;2.15;;;0.85;;
16705;SDS011;8469;60.136;15.180;2022-12-07T07:26:44;2.33;;;0.70;;
16705;SDS011;8469;60.136;15.180;2022-12-07T07:29:12;0.95;;;0.95;;
16705;SDS011;8469;60.136;15.180;2022-12-07T07:31:39;1.98;;;0.80;;
16705;SDS011;8469;60.136;15.180;2022-12-07T07:34:06;1.40;;;0.90;;
16705;SDS011;8469;60.136;15.180;2022-12-07T07:36:34;1.12;;;0.80;;
16705;SDS011;8469;60.136;15.180;2022-12-07T07:39:01;0.82;;;0.75;;
16705;SDS011;8469;60.136;15.180;2022-12-07T07:41:28;2.97;;;1.03;;
16705;SDS011;8469;60.136;15.180;2022-12-07T07:43:56;1.30;;;0.90;;
16705;SDS011;8469;60.136;15.180;2022-12-07T07:46:23;1.52;;;1.00;;
16705;SDS011;8469;60.136;15.180;2022-12-07T07:48:50;1.60;;;0.78;;
16705;SDS011;8469;60.136;15.180;2022-12-07T07:51:18;2.13;;;0.70;;
16705;SDS011;8469;60.136;15.180;2022-12-07T07:53:45;2.50;;;0.68;;
16705;SDS011;8469;60.136;15.180;2022-12-07T07:56:13;0.98;;;0.80;;
16705;SDS011;8469;60.136;15.180;2022-12-07T07:58:40;5.00;;;0.70;;
16705;SDS011;8469;60.136;15.180;2022-12-07T08:01:07;3.10;;;0.80;;
16705;SDS011;8469;60.136;15.180;2022-12-07T08:03:35;2.60;;;0.70;;
16705;SDS011;8469;60.136;15.180;2022-12-07T08:06:02;3.33;;;0.70;;
16705;SDS011;8469;60.136;15.180;2022-12-07T08:08:30;2.98;;;0.85;;
16705;SDS011;8469;60.136;15.180;2022-12-07T08:10:57;1.22;;;0.80;;
16705;SDS011;8469;60.136;15.180;2022-12-07T08:13:26;2.73;;;0.70;;
16705;SDS011;8469;60.136;15.180;2022-12-07T08:15:54;5.70;;;0.90;;
16705;SDS011;8469;60.136;15.180;2022-12-07T08:18:21;12.63;;;4.72;;
16705;SDS011;8469;60.136;15.180;2022-12-07T08:20:48;12.43;;;3.55;;
16705;SDS011;8469;60.136;15.180;2022-12-07T08:23:16;20.05;;;7.25;;
16705;SDS011;8469;60.136;15.180;2022-12-07T08:25:43;21.13;;;5.47;;
16705;SDS011;8469;60.136;15.180;2022-12-07T08:28:11;31.20;;;5.75;;
16705;SDS011;8469;60.136;15.180;2022-12-07T08:30:38;21.00;;;6.75;;
16705;SDS011;8469;60.136;15.180;2022-12-07T08:33:05;11.88;;;4.83;;
16705;SDS011;8469;60.136;15.180;2022-12-07T08:35:33;13.03;;;3.02;;
16705;SDS011;8469;60.136;15.180;2022-12-07T08:38:00;7.00;;;3.77;;
16705;SDS011;8469;60.136;15.180;2022-12-07T08:40:29;8.25;;;4.90;;
16705;SDS011;8469;60.136;15.180;2022-12-07T08:42:56;12.10;;;6.42;;
16705;SDS011;8469;60.136;15.180;2022-12-07T08:45:24;1.70;;;1.02;;
16705;SDS011;8469;60.136;15.180;2022-12-07T08:47:54;3.27;;;1.10;;
16705;SDS011;8469;60.136;15.180;2022-12-07T08:50:21;2.47;;;1.02;;
16705;SDS011;8469;60.136;15.180;2022-12-07T08:52:50;7.00;;;0.93;;
16705;SDS011;8469;60.136;15.180;2022-12-07T08:55:17;2.40;;;0.80;;
16705;SDS011;8469;60.136;15.180;2022-12-07T08:57:47;2.30;;;0.90;;
16705;SDS011;8469;60.136;15.180;2022-12-07T09:00:14;5.50;;;1.00;;
16705;SDS011;8469;60.136;15.180;2022-12-07T09:02:44;1.27;;;0.98;;
16705;SDS011;8469;60.136;15.180;2022-12-07T09:05:12;1.32;;;0.85;;
16705;SDS011;8469;60.136;15.180;2022-12-07T09:07:41;1.62;;;0.75;;
16705;SDS011;8469;60.136;15.180;2022-12-07T09:10:10;4.85;;;0.90;;
16705;SDS011;8469;60.136;15.180;2022-12-07T09:12:38;3.75;;;0.65;;
16705;SDS011;8469;60.136;15.180;2022-12-07T09:15:06;1.07;;;0.90;;
16705;SDS011;8469;60.136;15.180;2022-12-07T09:17:34;3.83;;;0.80;;
16705;SDS011;8469;60.136;15.180;2022-12-07T09:20:02;3.92;;;1.10;;
16705;SDS011;8469;60.136;15.180;2022-12-07T09:22:30;1.70;;;0.82;;
16705;SDS011;8469;60.136;15.180;2022-12-07T09:24:57;0.68;;;0.68;;
16705;SDS011;8469;60.136;15.180;2022-12-07T09:27:25;13.50;;;1.10;;
16705;SDS011;8469;60.136;15.180;2022-12-07T09:29:52;2.20;;;0.82;;
16705;SDS011;8469;60.136;15.180;2022-12-07T09:32:20;1.12;;;0.70;;
16705;SDS011;8469;60.136;15.180;2022-12-07T09:34:47;4.42;;;1.20;;
16705;SDS011;8469;60.136;15.180;2022-12-07T09:37:15;1.47;;;0.78;;
16705;SDS011;8469;60.136;15.180;2022-12-07T09:39:42;4.30;;;1.00;;
16705;SDS011;8469;60.136;15.180;2022-12-07T09:42:11;2.63;;;1.33;;
16705;SDS011;8469;60.136;15.180;2022-12-07T09:44:39;1.12;;;0.90;;
16705;SDS011;8469;60.136;15.180;2022-12-07T09:47:08;1.30;;;1.07;;
16705;SDS011;8469;60.136;15.180;2022-12-07T09:49:36;2.27;;;1.15;;
16705;SDS011;8469;60.136;15.180;2022-12-07T09:52:16;2.35;;;1.32;;
16705;SDS011;8469;60.136;15.180;2022-12-07T09:54:36;2.25;;;1.02;;
16705;SDS011;8469;60.136;15.180;2022-12-07T09:57:05;1.70;;;0.82;;
16705;SDS011;8469;60.136;15.180;2022-12-07T09:59:33;3.40;;;1.05;;
16705;SDS011;8469;60.136;15.180;2022-12-07T10:02:19;2.33;;;1.00;;
16705;SDS011;8469;60.136;15.180;2022-12-07T10:04:29;9.63;;;1.00;;
16705;SDS011;8469;60.136;15.180;2022-12-07T10:06:57;2.27;;;1.40;;
16705;SDS011;8469;60.136;15.180;2022-12-07T10:09:24;1.02;;;0.80;;
16705;SDS011;8469;60.136;15.180;2022-12-07T10:14:29;4.92;;;1.10;;
16705;SDS011;8469;60.136;15.180;2022-12-07T10:16:57;0.98;;;0.80;;
16705;SDS011;8469;60.136;15.180;2022-12-07T10:19:28;3.72;;;1.30;;
16705;SDS011;8469;60.136;15.180;2022-12-07T10:22:29;3.08;;;0.90;;
16705;SDS011;8469;60.136;15.180;2022-12-07T10:24:30;2.77;;;1.30;;
16705;SDS011;8469;60.136;15.180;2022-12-07T10:26:59;2.90;;;1.30;;
16705;SDS011;8469;60.136;15.180;2022-12-07T10:29:33;4.15;;;1.50;;
16705;SDS011;8469;60.136;15.180;2022-12-07T10:32:02;2.47;;;1.07;;
16705;SDS011;8469;60.136;15.180;2022-12-07T10:34:31;1.00;;;0.90;;
16705;SDS011;8469;60.136;15.180;2022-12-07T10:39:46;2.00;;;1.10;;
16705;SDS011;8469;60.136;15.180;2022-12-07T10:45:03;4.03;;;1.30;;
16705;SDS011;8469;60.136;15.180;2022-12-07T10:52:48;4.65;;;2.22;;
16705;SDS011;8469;60.136;15.180;2022-12-07T11:00:45;0.82;;;0.82;;
16705;SDS011;8469;60.136;15.180;2022-12-07T11:08:27;1.10;;;1.00;;
16705;SDS011;8469;60.136;15.180;2022-12-07T11:11:06;2.83;;;0.88;;
16705;SDS011;8469;60.136;15.180;2022-12-07T11:13:40;4.83;;;0.70;;
16705;SDS011;8469;60.136;15.180;2022-12-07T11:18:58;2.55;;;0.80;;
16705;SDS011;8469;60.136;15.180;2022-12-07T11:21:17;1.00;;;1.00;;
16705;SDS011;8469;60.136;15.180;2022-12-07T11:29:01;2.95;;;1.32;;
16705;SDS011;8469;60.136;15.180;2022-12-07T11:31:31;4.30;;;0.80;;
16705;SDS011;8469;60.136;15.180;2022-12-07T11:36:46;2.20;;;0.90;;
16705;SDS011;8469;60.136;15.180;2022-12-07T11:39:24;2.10;;;0.75;;
16705;SDS011;8469;60.136;15.180;2022-12-07T11:41:52;3.65;;;0.80;;
16705;SDS011;8469;60.136;15.180;2022-12-07T11:44:30;3.50;;;0.80;;
16705;SDS011;8469;60.136;15.180;2022-12-07T11:46:58;2.23;;;0.90;;
16705;SDS011;8469;60.136;15.180;2022-12-07T11:49:40;3.60;;;0.70;;
16705;SDS011;8469;60.136;15.180;2022-12-07T11:52:06;1.50;;;1.27;;
16705;SDS011;8469;60.136;15.180;2022-12-07T11:54:35;1.20;;;0.60;;
16705;SDS011;8469;60.136;15.180;2022-12-07T11:57:04;0.90;;;0.70;;
16705;SDS011;8469;60.136;15.180;2022-12-07T11:59:40;1.22;;;0.70;;
16705;SDS011;8469;60.136;15.180;2022-12-07T12:04:55;1.30;;;0.57;;
16705;SDS011;8469;60.136;15.180;2022-12-07T12:07:23;1.47;;;0.60;;
16705;SDS011;8469;60.136;15.180;2022-12-07T12:10:02;6.78;;;0.90;;
16705;SDS011;8469;60.136;15.180;2022-12-07T12:13:14;3.22;;;1.00;;
16705;SDS011;8469;60.136;15.180;2022-12-07T12:25:34;3.00;;;1.00;;
16705;SDS011;8469;60.136;15.180;2022-12-07T12:27:55;5.35;;;0.90;;
16705;SDS011;8469;60.136;15.180;2022-12-07T12:30:25;7.17;;;0.90;;
16705;SDS011;8469;60.136;15.180;2022-12-07T12:32:51;2.20;;;0.80;;
16705;SDS011;8469;60.136;15.180;2022-12-07T12:35:35;2.50;;;0.75;;
16705;SDS011;8469;60.136;15.180;2022-12-07T12:40:48;5.67;;;1.00;;
16705;SDS011;8469;60.136;15.180;2022-12-07T12:48:46;2.67;;;0.90;;
16705;SDS011;8469;60.136;15.180;2022-12-07T12:51:48;0.70;;;0.70;;
16705;SDS011;8469;60.136;15.180;2022-12-07T12:53:48;5.37;;;0.75;;
16705;SDS011;8469;60.136;15.180;2022-12-07T12:56:23;3.20;;;1.07;;
16705;SDS011;8469;60.136;15.180;2022-12-07T12:58:44;1.73;;;0.90;;
16705;SDS011;8469;60.136;15.180;2022-12-07T13:03:56;0.70;;;0.70;;
16705;SDS011;8469;60.136;15.180;2022-12-07T13:08:53;2.95;;;0.80;;
16705;SDS011;8469;60.136;15.180;2022-12-07T13:11:41;5.28;;;1.05;;
16705;SDS011;8469;60.136;15.180;2022-12-07T13:13:57;4.95;;;1.10;;
16705;SDS011;8469;60.136;15.180;2022-12-07T13:18:50;3.22;;;1.50;;
16705;SDS011;8469;60.136;15.180;2022-12-07T13:33:46;2.55;;;0.85;;
16705;SDS011;8469;60.136;15.180;2022-12-07T13:36:24;3.10;;;0.80;;
16705;SDS011;8469;60.136;15.180;2022-12-07T13:38:52;8.67;;;1.20;;
16705;SDS011;8469;60.136;15.180;2022-12-07T13:41:24;13.95;;;1.40;;
16705;SDS011;8469;60.136;15.180;2022-12-07T13:43:52;19.60;;;1.35;;
16705;SDS011;8469;60.136;15.180;2022-12-07T13:46:24;5.42;;;1.00;;
16705;SDS011;8469;60.136;15.180;2022-12-07T13:48:50;2.12;;;1.00;;
16705;SDS011;8469;60.136;15.180;2022-12-07T13:51:25;2.15;;;1.75;;
16705;SDS011;8469;60.136;15.180;2022-12-07T13:53:50;1.12;;;1.02;;
16705;SDS011;8469;60.136;15.180;2022-12-07T13:56:17;5.17;;;1.07;;
16705;SDS011;8469;60.136;15.180;2022-12-07T13:58:45;2.72;;;0.78;;
16705;SDS011;8469;60.136;15.180;2022-12-07T14:01:12;2.30;;;0.90;;
16705;SDS011;8469;60.136;15.180;2022-12-07T14:03:40;3.40;;;0.98;;
16705;SDS011;8469;60.136;15.180;2022-12-07T14:06:19;1.75;;;0.90;;
16705;SDS011;8469;60.136;15.180;2022-12-07T14:08:36;4.22;;;0.72;;
16705;SDS011;8469;60.136;15.180;2022-12-07T14:11:03;1.65;;;0.80;;
16705;SDS011;8469;60.136;15.180;2022-12-07T14:13:32;3.20;;;1.20;;
16705;SDS011;8469;60.136;15.180;2022-12-07T14:18:48;4.72;;;0.90;;
16705;SDS011;8469;60.136;15.180;2022-12-07T14:21:16;1.25;;;1.15;;
16705;SDS011;8469;60.136;15.180;2022-12-07T14:23:45;2.80;;;0.90;;
16705;SDS011;8469;60.136;15.180;2022-12-07T14:26:13;2.85;;;0.93;;
16705;SDS011;8469;60.136;15.180;2022-12-07T14:28:42;5.85;;;1.50;;
16705;SDS011;8469;60.136;15.180;2022-12-07T14:31:17;3.15;;;1.17;;
16705;SDS011;8469;60.136;15.180;2022-12-07T14:33:46;1.62;;;1.15;;
16705;SDS011;8469;60.136;15.180;2022-12-07T14:36:13;3.52;;;1.22;;
16705;SDS011;8469;60.136;15.180;2022-12-07T14:38:41;1.45;;;1.12;;
16705;SDS011;8469;60.136;15.180;2022-12-07T14:41:15;5.53;;;3.10;;
16705;SDS011;8469;60.136;15.180;2022-12-07T14:44:01;8.28;;;2.75;;
16705;SDS011;8469;60.136;15.180;2022-12-07T14:46:29;26.40;;;3.27;;
16705;SDS011;8469;60.136;15.180;2022-12-07T14:48:56;30.37;;;7.97;;
16705;SDS011;8469;60.136;15.180;2022-12-07T14:51:24;34.98;;;10.43;;
16705;SDS011;8469;60.136;15.180;2022-12-07T14:53:51;24.53;;;5.83;;
16705;SDS011;8469;60.136;15.180;2022-12-07T14:56:19;31.27;;;4.80;;
16705;SDS011;8469;60.136;15.180;2022-12-07T14:58:46;17.95;;;3.35;;
16705;SDS011;8469;60.136;15.180;2022-12-07T15:01:14;19.30;;;3.52;;
16705;SDS011;8469;60.136;15.180;2022-12-07T15:03:41;23.18;;;4.17;;
16705;SDS011;8469;60.136;15.180;2022-12-07T15:06:14;15.00;;;4.47;;
